Time;durP1;ratioP1;P1;durP2;ratioP2;P2;SDS_P1;SDS_P2;PMS_P1;PMS_P2;Temp;Humidity;BMP_temperature;BMP_pressure;BME280_temperature;BME280_humidity;BME280_pressure;Samples;Min_cycle;Max_cycle;Signal;HPM_P1;HPM_P2
2021/05/18 00:00:12;;;;;;;16.30;9.65;;;;;;;15.06;82.93;99022.05;1640141;87;21259;-60
2021/05/18 00:02:40;;;;;;;17.12;10.55;;;;;;;15.00;82.75;99023.08;1640073;87;21166;-60
2021/05/18 00:05:09;;;;;;;15.30;11.20;;;;;;;14.95;82.86;99023.00;1640114;87;21074;-62
2021/05/18 00:07:38;;;;;;;15.60;11.12;;;;;;;14.94;82.92;99033.20;1640126;86;21282;-61
2021/05/18 00:12:53;;;;;;;19.00;10.58;;;;;;;14.99;83.24;99032.45;1580011;90;21434;-60
2021/05/18 00:15:21;;;;;;;15.10;10.30;;;;;;;15.00;83.06;99028.05;1588477;90;21379;-61
2021/05/18 00:17:49;;;;;;;14.87;10.38;;;;;;;14.99;83.14;99015.36;1640043;87;21066;-60
2021/05/18 00:20:18;;;;;;;16.87;11.57;;;;;;;15.01;83.15;99013.72;1640060;87;21023;-61
2021/05/18 00:22:46;;;;;;;16.07;11.08;;;;;;;15.05;83.23;99010.72;1640060;87;21253;-61
2021/05/18 00:25:14;;;;;;;18.95;11.85;;;;;;;15.08;83.07;99006.90;1640105;87;21051;-60
2021/05/18 00:27:41;;;;;;;13.60;9.13;;;;;;;15.10;83.05;99014.91;1639980;87;21048;-60
2021/05/18 00:30:10;;;;;;;14.03;9.13;;;;;;;15.12;83.05;99014.94;1640010;87;21282;-60
2021/05/18 00:32:39;;;;;;;12.45;9.15;;;;;;;15.14;83.02;99004.47;1640030;87;21827;-60
2021/05/18 00:35:10;;;;;;;11.55;8.58;;;;;;;15.14;82.80;99003.64;1640058;87;21032;-61
2021/05/18 00:37:37;;;;;;;16.52;10.00;;;;;;;15.12;82.80;98997.55;1640198;87;21067;-61
2021/05/18 00:40:07;;;;;;;12.75;8.90;;;;;;;15.11;82.85;99004.99;1640043;87;21069;-61
2021/05/18 00:42:51;;;;;;;13.22;8.85;;;;;;;15.12;82.85;98998.38;1640200;86;21393;-61
2021/05/18 00:45:40;;;;;;;13.22;8.98;;;;;;;15.12;82.75;99000.31;1640023;87;21115;-60
2021/05/18 00:48:08;;;;;;;14.80;9.20;;;;;;;15.08;82.67;98997.24;1640027;87;21099;-61
2021/05/18 00:50:39;;;;;;;16.07;9.68;;;;;;;15.06;82.89;98997.22;1640099;87;21096;-61
2021/05/18 00:53:07;;;;;;;15.83;10.58;;;;;;;15.06;82.97;98994.46;1640113;87;21708;-61
2021/05/18 00:58:33;;;;;;;18.10;9.70;;;;;;;15.04;82.93;98998.02;1626696;87;21079;-61
2021/05/18 01:01:16;;;;;;;20.55;10.82;;;;;;;15.04;82.92;99001.62;1640127;87;21182;-61
2021/05/18 01:03:38;;;;;;;18.52;10.90;;;;;;;15.05;82.90;99000.52;1639226;87;21340;-60
2021/05/18 01:06:25;;;;;;;23.77;12.18;;;;;;;15.03;82.78;98997.73;1638549;86;21372;-61
2021/05/18 01:08:58;;;;;;;21.52;12.70;;;;;;;15.00;82.84;99000.48;1638165;86;21189;-60
2021/05/18 01:11:30;;;;;;;21.10;12.33;;;;;;;15.01;82.96;98995.79;1638169;87;21162;-61
2021/05/18 01:14:02;;;;;;;20.88;11.30;;;;;;;15.00;83.03;98997.72;1638261;87;21104;-60
2021/05/18 01:16:33;;;;;;;19.75;11.40;;;;;;;15.02;83.03;98991.94;1638135;87;21338;-60
2021/05/18 01:19:01;;;;;;;19.75;11.45;;;;;;;15.03;83.00;98994.98;1638127;87;21166;-60
2021/05/18 01:21:30;;;;;;;18.75;11.70;;;;;;;15.02;82.85;98983.66;1638174;87;21055;-61
2021/05/18 01:23:57;;;;;;;19.70;10.82;;;;;;;15.01;82.79;98979.24;1638169;87;21122;-61
2021/05/18 01:26:28;;;;;;;19.32;10.40;;;;;;;14.91;82.55;98978.02;1638219;87;21115;-60
2021/05/18 01:28:56;;;;;;;20.10;10.75;;;;;;;14.81;82.69;98979.30;1638314;87;21170;-61
2021/05/18 01:31:25;;;;;;;19.85;11.48;;;;;;;14.79;83.02;98981.48;1638372;87;21349;-60
2021/05/18 01:33:53;;;;;;;20.40;10.58;;;;;;;14.81;83.33;98997.77;1638335;87;21330;-61
2021/05/18 01:36:23;;;;;;;16.57;10.40;;;;;;;14.84;83.48;98982.91;1638224;87;21127;-61
2021/05/18 01:39:07;;;;;;;18.70;11.35;;;;;;;14.87;83.31;98981.02;1619761;87;21780;-60
2021/05/18 01:44:16;;;;;;;16.42;10.48;;;;;;;14.75;83.38;98970.69;1638229;87;21083;-61
2021/05/18 01:46:44;;;;;;;16.93;10.45;;;;;;;14.77;83.59;98976.77;1638231;87;21949;-61
2021/05/18 01:49:12;;;;;;;19.50;11.25;;;;;;;14.73;83.34;98964.59;1638220;87;21914;-60
2021/05/18 01:51:55;;;;;;;18.62;10.28;;;;;;;14.68;83.40;98965.09;1638479;87;22094;-61
2021/05/18 01:54:29;;;;;;;18.12;10.13;;;;;;;14.62;83.46;98965.58;1638265;87;21103;-60
2021/05/18 01:59:29;;;;;;;17.98;11.38;;;;;;;14.54;83.99;98959.98;1619733;87;21123;-61
2021/05/18 02:02:02;;;;;;;19.00;11.90;;;;;;;14.53;84.17;98964.37;1638123;87;21072;-61
2021/05/18 02:04:37;;;;;;;18.98;11.28;;;;;;;14.54;84.34;98957.77;1619662;87;21110;-60
2021/05/18 02:07:11;;;;;;;17.80;10.98;;;;;;;14.58;84.57;98954.78;1638408;86;21347;-59
2021/05/18 02:09:39;;;;;;;17.62;10.35;;;;;;;14.65;84.56;98955.41;1641585;87;21334;-60
2021/05/18 02:12:08;;;;;;;14.18;9.68;;;;;;;14.70;84.39;98955.47;1638234;87;21068;-60
2021/05/18 02:14:36;;;;;;;16.35;9.95;;;;;;;14.73;84.36;98960.46;1638181;87;21063;-60
2021/05/18 02:25:26;;;;;;;16.75;10.48;;;;;;;14.59;83.58;98944.88;1638389;87;21178;-61
2021/05/18 02:28:07;;;;;;;17.32;10.75;;;;;;;14.60;83.93;98944.34;1638195;87;21839;-60
2021/05/18 02:30:37;;;;;;;18.25;11.20;;;;;;;14.64;83.95;98948.78;1638089;87;21083;-60
2021/05/18 02:33:05;;;;;;;17.00;11.40;;;;;;;14.66;84.06;98943.30;1638239;87;21416;-61
2021/05/18 02:35:37;;;;;;;15.88;10.48;;;;;;;14.69;84.12;98948.29;1638306;87;21840;-60
2021/05/18 02:38:05;;;;;;;16.40;10.70;;;;;;;14.73;84.04;98945.84;1638305;87;21858;-61
2021/05/18 02:40:35;;;;;;;13.72;9.63;;;;;;;14.74;83.96;98953.86;1638240;87;21076;-61
2021/05/18 02:43:03;;;;;;;14.43;10.80;;;;;;;14.80;83.83;98954.73;1619807;87;21214;-60
2021/05/18 02:45:39;;;;;;;14.13;9.98;;;;;;;14.83;83.65;98966.63;1638234;87;21205;-60
2021/05/18 02:50:48;;;;;;;15.15;10.70;;;;;;;14.88;83.21;98968.88;1638284;87;21186;-61
2021/05/18 02:53:18;;;;;;;16.10;10.30;;;;;;;14.89;83.02;98963.66;1638175;87;21358;-60
2021/05/18 02:58:15;;;;;;;15.35;10.55;;;;;;;14.89;82.65;98967.80;1638294;86;21857;-61
2021/05/18 03:00:42;;;;;;;14.53;10.10;;;;;;;14.90;82.49;98963.94;1638324;87;21067;-60
2021/05/18 03:03:10;;;;;;;14.90;10.18;;;;;;;14.90;82.36;98965.32;1638133;87;21079;-60
2021/05/18 03:05:37;;;;;;;16.60;10.08;;;;;;;14.91;82.36;98970.29;1639117;86;21108;-60
2021/05/18 03:08:07;;;;;;;19.62;11.22;;;;;;;14.93;82.27;98978.30;1607472;89;21906;-61
2021/05/18 03:10:35;;;;;;;21.80;12.03;;;;;;;14.91;82.19;98979.94;1591944;89;21114;-60
2021/05/18 03:13:03;;;;;;;28.90;13.40;;;;;;;14.90;82.21;98982.41;1591923;90;21182;-61
2021/05/18 03:15:31;;;;;;;27.85;13.98;;;;;;;14.91;82.30;98984.08;1593323;90;21331;-61
2021/05/18 03:17:59;;;;;;;29.57;15.25;;;;;;;14.92;82.41;98974.72;1599432;89;21131;-60
2021/05/18 03:20:26;;;;;;;36.93;17.30;;;;;;;14.90;82.36;98968.62;1580914;90;21992;-60
2021/05/18 03:22:54;;;;;;;31.25;15.30;;;;;;;14.91;82.57;98973.05;1599416;89;21095;-61
2021/05/18 03:25:22;;;;;;;23.55;12.15;;;;;;;14.94;82.73;98969.77;1580910;90;21104;-61
2021/05/18 03:27:52;;;;;;;27.40;14.60;;;;;;;14.93;82.51;98979.14;1599474;88;21078;-61
2021/05/18 03:35:33;;;;;;;28.45;14.03;;;;;;;14.88;83.00;98987.36;1593242;90;21096;-61
2021/05/18 03:38:06;;;;;;;26.25;13.68;;;;;;;14.90;83.22;98988.77;1593350;89;21284;-61
2021/05/18 03:40:31;;;;;;;22.93;12.88;;;;;;;14.91;83.16;98990.42;1593158;89;21062;-61
2021/05/18 03:43:10;;;;;;;23.77;12.93;;;;;;;14.94;83.15;98984.94;1598053;89;21824;-61
2021/05/18 03:45:34;;;;;;;25.32;13.15;;;;;;;14.97;83.13;98979.48;1591172;89;21113;-61
2021/05/18 03:53:47;;;;;;;20.52;11.83;;;;;;;15.04;83.10;98978.72;1597901;89;21093;-61
2021/05/18 04:02:39;;;;;;;21.90;12.43;;;;;;;15.07;82.91;98987.84;1597950;89;21814;-62
2021/05/18 04:04:21;;;;;;;18.50;11.50;;;;;;;15.10;82.76;98992.84;1597953;89;21463;-60
2021/05/18 04:12:31;;;;;;;14.35;9.15;;;;;;;15.17;82.44;98991.53;1633667;87;21060;-61
2021/05/18 04:18:18;;;;;;;13.48;9.20;;;;;;;15.18;82.21;98997.88;1633762;86;21075;-60
2021/05/18 04:20:35;;;;;;;13.25;8.70;;;;;;;15.21;82.14;99007.84;1629990;87;21059;-60
2021/05/18 04:50:41;;;;;;;12.55;8.53;;;;;;;15.39;81.48;99006.62;1633756;86;21372;-62
2021/05/18 05:01:26;;;;;;;24.02;14.55;;;;;;;15.59;81.34;99003.77;1633856;87;21699;-62
2021/05/18 05:06:29;;;;;;;15.83;10.58;;;;;;;15.65;81.01;98999.98;1635257;86;21257;-60
2021/05/18 05:09:12;;;;;;;15.25;10.40;;;;;;;15.71;80.83;99003.06;1637838;87;21099;-62
2021/05/18 05:14:23;;;;;;;15.68;10.23;;;;;;;15.79;80.62;98999.80;1638122;86;21858;-61
2021/05/18 05:16:50;;;;;;;17.67;11.15;;;;;;;15.83;80.44;98996.80;1638177;87;21327;-61
2021/05/18 05:19:20;;;;;;;17.07;10.00;;;;;;;15.86;80.31;98994.87;1638097;87;21124;-62
2021/05/18 05:21:48;;;;;;;12.85;8.98;;;;;;;15.91;80.20;98985.80;1638239;87;21416;-61
2021/05/18 05:24:16;;;;;;;13.88;9.38;;;;;;;15.98;80.05;98986.39;1638146;87;21294;-62
2021/05/18 05:26:43;;;;;;;15.50;10.00;;;;;;;16.00;79.97;98969.83;1638195;87;21820;-62
2021/05/18 05:29:11;;;;;;;15.38;10.10;;;;;;;16.08;79.96;98969.87;1638196;87;21202;-60
2021/05/18 05:31:39;;;;;;;14.65;10.53;;;;;;;16.16;79.79;98977.09;1638087;87;21185;-61
2021/05/18 05:34:07;;;;;;;14.33;10.03;;;;;;;16.22;79.35;98979.87;1638110;87;21394;-61
2021/05/18 05:36:34;;;;;;;13.43;10.08;;;;;;;16.25;78.92;98975.20;1638140;87;21317;-60
2021/05/18 05:39:10;;;;;;;12.85;9.58;;;;;;;16.29;78.62;98972.20;1638158;87;21079;-60
2021/05/18 05:41:33;;;;;;;15.08;10.25;;;;;;;16.35;78.48;98972.50;1637879;87;21104;-61
2021/05/18 05:44:01;;;;;;;14.83;10.40;;;;;;;16.38;78.23;98975.56;1638298;87;21032;-61
2021/05/18 05:46:28;;;;;;;13.95;10.58;;;;;;;16.42;78.07;98971.70;1638148;87;21059;-61
2021/05/18 05:48:56;;;;;;;14.50;10.65;;;;;;;16.46;77.89;98990.24;1638078;87;21273;-60
2021/05/18 05:51:31;;;;;;;14.60;9.70;;;;;;;16.50;77.81;98987.77;1638175;87;21108;-60
2021/05/18 05:53:59;;;;;;;16.20;10.08;;;;;;;16.54;77.42;98989.44;1638390;87;21182;-60
2021/05/18 05:56:28;;;;;;;15.32;9.68;;;;;;;16.56;77.39;98990.00;1638176;86;21064;-60
2021/05/18 05:58:56;;;;;;;15.70;10.45;;;;;;;16.60;77.33;98982.27;1638320;87;21255;-61
2021/05/18 06:01:24;;;;;;;13.93;10.82;;;;;;;16.63;77.02;98981.73;1638156;87;21339;-60
2021/05/18 06:03:51;;;;;;;16.00;10.35;;;;;;;16.64;76.93;98982.01;1638123;87;21062;-60
2021/05/18 06:06:20;;;;;;;11.80;9.33;;;;;;;16.68;76.87;98980.39;1637957;86;21151;-66
2021/05/18 06:08:50;;;;;;;15.95;9.25;;;;;;;16.72;76.61;98974.59;1640245;86;21672;-66
2021/05/18 06:43:37;;;;;;;19.95;13.10;;;;;;;17.21;74.41;98965.02;1640365;87;21112;-66
2021/05/18 06:48:36;;;;;;;18.23;11.93;;;;;;;17.31;74.63;98960.86;1598367;88;21075;-66
2021/05/18 06:51:04;;;;;;;18.25;12.30;;;;;;;17.41;74.48;98963.63;1591919;90;21229;-66
2021/05/18 06:53:32;;;;;;;19.60;11.30;;;;;;;17.50;73.79;98955.04;1596985;89;21667;-66
2021/05/18 06:56:02;;;;;;;18.37;11.60;;;;;;;17.59;73.26;98955.34;1598678;89;21854;-66
2021/05/18 07:01:08;;;;;;;19.55;11.25;;;;;;;17.79;73.02;98953.12;1630464;87;22167;-64
2021/05/18 07:03:41;;;;;;;16.80;10.40;;;;;;;17.88;72.53;98950.88;1598264;89;21170;-66
2021/05/18 07:06:23;;;;;;;14.95;10.18;;;;;;;17.92;72.12;98953.36;1662036;85;21671;-65
2021/05/18 07:11:03;;;;;;;15.63;9.90;;;;;;;17.92;71.42;98942.28;1659227;85;21121;-65
2021/05/18 07:13:31;;;;;;;13.03;9.00;;;;;;;17.95;71.66;98946.43;1660332;85;21091;-67
2021/05/18 07:15:58;;;;;;;17.10;10.20;;;;;;;17.98;71.33;98952.23;1659055;85;21047;-66
2021/05/18 07:18:26;;;;;;;12.82;8.95;;;;;;;17.99;71.03;98954.45;1659830;85;21071;-65
2021/05/18 07:20:53;;;;;;;9.80;7.80;;;;;;;18.04;71.16;98946.95;1661972;85;21190;-66
2021/05/18 07:23:24;;;;;;;9.98;7.08;;;;;;;18.12;70.69;98953.86;1659590;85;21268;-66
2021/05/18 07:25:52;;;;;;;9.25;5.40;;;;;;;18.19;70.19;98955.77;1661134;85;21081;-66
2021/05/18 07:28:20;;;;;;;11.38;6.90;;;;;;;18.26;68.98;98955.50;1662990;85;21114;-66
2021/05/18 07:30:49;;;;;;;11.63;7.42;;;;;;;18.28;69.09;98947.73;1657004;85;21090;-66
2021/05/18 07:33:17;;;;;;;15.70;9.15;;;;;;;18.32;69.27;98954.37;1660807;85;21356;-65
2021/05/18 07:35:46;;;;;;;15.72;9.78;;;;;;;18.35;69.36;98953.80;1661639;85;21091;-65
2021/05/18 07:38:14;;;;;;;11.70;7.12;;;;;;;18.43;69.51;98956.54;1657082;85;21049;-65
2021/05/18 07:40:42;;;;;;;16.12;7.78;;;;;;;18.50;69.39;98950.13;1658235;85;21163;-65
2021/05/18 07:43:13;;;;;;;10.43;6.05;;;;;;;18.56;68.92;98956.75;1658636;85;21311;-65
2021/05/18 07:45:42;;;;;;;10.05;6.75;;;;;;;18.60;68.41;98951.45;1661856;85;21087;-65
2021/05/18 08:07:16;;;;;;;14.13;10.85;;;;;;;18.39;68.69;98967.37;1658555;84;21439;-68
2021/05/18 08:10:10;;;;;;;18.05;13.80;;;;;;;18.38;68.92;98967.09;1653436;86;21075;-69
2021/05/18 08:12:18;;;;;;;24.72;14.98;;;;;;;18.37;69.05;98966.83;1655339;84;21182;-67
2021/05/18 08:15:03;;;;;;;28.00;13.40;;;;;;;18.37;69.36;98966.27;1656777;86;21297;-69
2021/05/18 08:17:23;;;;;;;18.25;10.75;;;;;;;18.40;69.93;98973.19;1653247;86;21198;-71
2021/05/18 08:20:20;;;;;;;15.98;8.73;;;;;;;18.39;70.47;98971.53;1651375;86;21063;-63
2021/05/18 08:22:54;;;;;;;13.38;8.95;;;;;;;18.40;70.78;98968.20;1654789;86;21251;-67
2021/05/18 10:14:34;;;;;;;14.00;7.95;;;;;;;19.37;70.66;98858.77;1647821;86;21112;-74
2021/05/18 10:34:42;;;;;;;5.03;2.80;;;;;;;20.70;60.26;98828.26;1667974;86;21103;-72
2021/05/18 10:37:50;;;;;;;3.22;2.17;;;;;;;20.58;60.51;98837.90;1640296;87;21209;-72
2021/05/18 10:40:35;;;;;;;3.95;2.10;;;;;;;20.45;60.87;98846.17;1639764;87;21250;-72
2021/05/18 10:43:29;;;;;;;7.03;2.58;;;;;;;20.34;61.22;98851.58;1642976;86;21131;-70
2021/05/18 10:46:02;;;;;;;7.35;3.27;;;;;;;20.22;61.58;98847.29;1647204;86;21113;-73
2021/05/18 10:48:42;;;;;;;6.87;2.70;;;;;;;20.10;62.05;98839.09;1657613;86;21052;-71
2021/05/18 10:51:38;;;;;;;7.25;3.60;;;;;;;20.00;62.25;98839.22;1655845;86;21803;-70
2021/05/18 10:54:27;;;;;;;6.20;3.47;;;;;;;19.88;62.76;98834.09;1646278;85;21255;-71
2021/05/18 10:56:59;;;;;;;6.53;2.70;;;;;;;19.82;63.36;98833.89;1641122;86;21334;-71
2021/05/18 10:59:48;;;;;;;7.62;2.70;;;;;;;19.77;63.46;98840.33;1637775;86;21131;-70
2021/05/18 11:02:37;;;;;;;6.53;2.80;;;;;;;19.76;63.79;98826.73;1640899;86;21368;-70
2021/05/18 11:05:10;;;;;;;21.57;4.75;;;;;;;19.74;64.08;98835.36;1641193;86;21095;-71
2021/05/18 11:07:45;;;;;;;6.87;3.00;;;;;;;19.73;64.40;98832.32;1641131;84;21364;-71
2021/05/18 11:10:17;;;;;;;4.90;2.52;;;;;;;19.72;64.70;98824.28;1640718;86;21288;-70
2021/05/18 11:12:48;;;;;;;4.17;2.60;;;;;;;19.68;64.76;98815.70;1638770;86;21087;-71
2021/05/18 11:15:20;;;;;;;4.12;2.30;;;;;;;19.60;65.07;98813.02;1629703;85;21820;-72
2021/05/18 11:17:53;;;;;;;7.15;2.75;;;;;;;19.57;65.14;98810.01;1651815;85;21140;-71
2021/05/18 11:23:31;;;;;;;6.12;2.33;;;;;;;19.53;65.75;98802.83;1650744;86;21162;-72
2021/05/18 11:26:09;;;;;;;8.73;2.83;;;;;;;19.49;66.38;98803.64;1637283;87;21719;-71
2021/05/18 11:28:45;;;;;;;6.80;2.87;;;;;;;19.46;66.95;98802.84;1653865;86;21251;-69
2021/05/18 11:31:20;;;;;;;9.50;3.07;;;;;;;19.37;68.55;98796.28;1652157;86;21280;-74
2021/05/18 11:33:52;;;;;;;6.10;2.67;;;;;;;19.37;68.55;98796.28;1652820;86;21633;-72
2021/05/18 11:36:28;;;;;;;8.63;2.45;;;;;;;19.34;70.01;98800.48;1654924;86;21221;-75
2021/05/18 11:38:58;;;;;;;10.82;4.10;;;;;;;19.28;70.76;98806.64;1656068;86;21532;-68
2021/05/18 11:41:31;;;;;;;5.47;3.22;;;;;;;19.19;71.84;98805.63;1641556;86;21160;-70
2021/05/18 11:43:59;;;;;;;5.47;3.40;;;;;;;19.09;71.28;98798.80;1611347;89;21202;-71
2021/05/18 11:46:29;;;;;;;10.18;3.25;;;;;;;18.99;70.69;98795.55;1629274;86;21746;-71
2021/05/18 11:49:08;;;;;;;5.80;3.02;;;;;;;18.93;70.80;98798.67;1625129;88;21072;-70
2021/05/18 11:51:54;;;;;;;6.35;4.08;;;;;;;18.88;71.36;98805.09;1625096;87;21107;-72
2021/05/18 11:54:24;;;;;;;;;;;;;;;18.85;71.88;98813.14;1626085;87;21091;-72
2021/05/18 11:56:55;;;;;;;7.65;3.62;;;;;;;18.80;71.98;98818.17;1627233;88;20201;-71
2021/05/18 11:59:23;;;;;;;6.72;3.35;;;;;;;18.73;72.35;98827.95;1625118;87;21064;-70
2021/05/18 12:02:00;;;;;;;7.03;3.08;;;;;;;18.62;72.96;98830.80;1625541;87;21764;-72
2021/05/18 12:04:30;;;;;;;4.50;2.62;;;;;;;18.56;72.92;98832.48;1633326;86;21074;-72
2021/05/18 12:07:13;;;;;;;7.28;4.17;;;;;;;18.49;72.21;98831.42;1647054;85;21107;-72
2021/05/18 12:09:40;;;;;;;7.60;3.30;;;;;;;18.45;72.32;98835.89;1632707;87;21715;-69
2021/05/18 12:12:10;;;;;;;4.97;3.15;;;;;;;18.44;72.45;98836.17;1644600;87;21756;-69
2021/05/18 12:14:50;;;;;;;4.78;3.12;;;;;;;18.39;72.71;98832.88;1678631;84;21177;-68
2021/05/18 12:17:29;;;;;;;5.03;3.12;;;;;;;18.37;72.76;98832.33;1700577;84;21147;-68
2021/05/18 12:19:58;;;;;;;;;;;;;;;18.30;72.91;98823.50;1703224;83;21724;-72
2021/05/18 12:22:26;;;;;;;7.22;3.15;;;;;;;18.24;73.20;98825.48;1700547;84;20259;-70
2021/05/18 12:24:55;;;;;;;4.95;3.00;;;;;;;18.22;73.45;98820.78;1682756;84;21185;-71
2021/05/18 12:27:23;;;;;;;10.72;4.17;;;;;;;18.24;73.67;98823.27;1700936;84;21326;-70
2021/05/18 12:29:54;;;;;;;8.78;4.17;;;;;;;18.23;72.92;98825.77;1700577;84;21090;-70
2021/05/18 12:32:28;;;;;;;4.40;2.90;;;;;;;18.20;72.77;98820.77;1696374;84;21059;-70
2021/05/18 12:35:17;;;;;;;2.65;1.90;;;;;;;18.19;72.12;98824.65;1644595;87;21229;-67
2021/05/18 12:37:48;;;;;;;9.05;4.03;;;;;;;18.17;70.55;98815.23;1644684;86;21730;-70
2021/05/18 12:40:21;;;;;;;7.42;2.47;;;;;;;18.15;71.61;98813.86;1644983;86;21779;-68
2021/05/18 12:42:49;;;;;;;5.47;3.00;;;;;;;18.12;72.67;98821.36;1643175;87;21142;-68
2021/05/18 12:45:24;;;;;;;8.58;4.40;;;;;;;18.09;73.35;98833.02;1644677;86;21365;-69
2021/05/18 12:48:00;;;;;;;9.88;4.72;;;;;;;18.02;74.16;98821.69;1644408;87;21471;-70
2021/05/18 12:50:36;;;;;;;6.10;3.60;;;;;;;18.01;74.96;98810.89;1645466;85;21113;-70
2021/05/18 12:53:04;;;;;;;7.65;3.52;;;;;;;17.97;75.28;98816.17;1644133;87;21065;-71
2021/05/18 12:55:32;;;;;;;7.90;3.67;;;;;;;17.92;75.41;98818.14;1647414;86;21105;-66
2021/05/18 12:58:07;;;;;;;7.58;3.83;;;;;;;17.85;75.85;98821.77;1647963;86;21268;-65
2021/05/18 13:00:44;;;;;;;10.63;3.80;;;;;;;17.81;76.40;98818.74;1647928;86;21069;-65
2021/05/18 13:03:20;;;;;;;8.50;4.60;;;;;;;17.77;76.73;98830.13;1649330;85;21868;-66
2021/05/18 13:05:54;;;;;;;7.67;3.45;;;;;;;17.74;77.05;98836.22;1671901;84;21327;-68
2021/05/18 13:08:37;;;;;;;6.10;3.12;;;;;;;17.70;77.33;98829.59;1692814;84;21323;-67
2021/05/18 13:13:55;;;;;;;9.50;3.45;;;;;;;17.62;77.86;98809.38;1670845;85;21848;-68
2021/05/18 13:16:28;;;;;;;6.53;3.65;;;;;;;17.63;78.21;98815.19;1671539;85;21741;-67
2021/05/18 13:19:01;;;;;;;10.00;4.00;;;;;;;17.67;78.19;98810.21;1671439;84;21256;-62
2021/05/18 13:21:37;;;;;;;5.50;3.90;;;;;;;17.66;77.67;98809.08;1684231;84;21321;-65
2021/05/18 13:26:36;;;;;;;9.48;4.85;;;;;;;17.68;77.46;98809.10;1701234;84;21298;-65
2021/05/18 13:29:15;;;;;;;7.30;4.60;;;;;;;17.70;77.12;98813.80;1701106;84;21083;-64
2021/05/18 13:31:42;;;;;;;8.83;5.20;;;;;;;17.73;76.97;98805.48;1701409;84;21269;-65
2021/05/18 13:34:10;;;;;;;9.10;4.28;;;;;;;17.76;77.19;98806.30;1701331;83;21284;-68
2021/05/18 13:36:40;;;;;;;9.23;4.80;;;;;;;17.82;77.22;98800.18;1701269;83;21043;-67
2021/05/18 13:39:11;;;;;;;10.65;5.30;;;;;;;17.86;77.43;98788.24;1701245;84;21156;-65
2021/05/18 13:41:40;;;;;;;8.50;5.25;;;;;;;17.92;77.75;98799.58;1701196;84;21103;-64
2021/05/18 13:44:08;;;;;;;10.20;6.03;;;;;;;18.02;78.02;98791.77;1663340;83;21057;-64
2021/05/18 13:46:36;;;;;;;9.95;6.28;;;;;;;18.12;77.88;98790.88;1648068;86;21259;-64
2021/05/18 13:49:06;;;;;;;9.83;5.10;;;;;;;18.22;77.72;98798.60;1647751;86;21192;-63
2021/05/18 13:51:33;;;;;;;9.85;5.75;;;;;;;18.32;77.22;98804.64;1653853;86;21123;-68
2021/05/18 13:54:00;;;;;;;8.83;5.35;;;;;;;18.41;76.33;98808.45;1663098;85;21768;-67
2021/05/18 13:56:31;;;;;;;10.88;6.83;;;;;;;18.58;76.40;98804.73;1663081;86;21811;-64
2021/05/18 13:58:59;;;;;;;14.33;9.38;;;;;;;18.74;75.65;98799.09;1669954;85;21111;-65
2021/05/18 14:01:27;;;;;;;11.20;6.42;;;;;;;18.97;75.05;98792.24;1672916;85;21067;-66
2021/05/18 14:03:55;;;;;;;11.95;5.90;;;;;;;19.35;75.53;98794.36;1673399;85;21182;-65
2021/05/18 14:06:23;;;;;;;14.80;7.53;;;;;;;19.64;74.50;98799.36;1673628;84;21072;-62
2021/05/18 14:08:53;;;;;;;12.85;7.62;;;;;;;19.88;74.05;98804.34;1645945;86;21083;-64
2021/05/18 14:11:20;;;;;;;15.32;9.05;;;;;;;20.08;73.29;98806.02;1650803;85;21245;-65
2021/05/18 14:13:51;;;;;;;12.10;8.63;;;;;;;20.24;72.13;98790.80;1672919;85;21198;-65
2021/05/18 14:16:21;;;;;;;24.40;16.85;;;;;;;20.31;70.60;98786.25;1650769;85;21120;-63
2021/05/18 14:18:52;;;;;;;18.70;13.18;;;;;;;20.32;69.66;98785.12;1646132;85;21095;-64
2021/05/18 14:21:24;;;;;;;20.17;11.50;;;;;;;20.28;69.00;98778.52;1648082;87;21145;-65
2021/05/18 14:24:18;;;;;;;21.90;9.90;;;;;;;20.29;68.96;98774.60;1648846;85;21333;-64
2021/05/18 14:26:40;;;;;;;24.50;11.20;;;;;;;20.34;68.48;98770.35;1635450;87;21096;-62
2021/05/18 14:29:09;;;;;;;22.42;9.90;;;;;;;20.31;68.58;98765.95;1636118;87;21339;-66
2021/05/18 14:31:37;;;;;;;20.23;10.65;;;;;;;20.19;68.24;98753.89;1638949;85;21120;-64
2021/05/18 14:34:05;;;;;;;20.20;10.00;;;;;;;20.09;68.39;98759.02;1672900;85;21124;-64
2021/05/18 14:36:32;;;;;;;12.65;7.10;;;;;;;20.01;67.93;98753.30;1673065;85;21198;-64
2021/05/18 14:39:06;;;;;;;16.17;7.78;;;;;;;19.89;67.19;98754.57;1672930;85;21900;-63
2021/05/18 14:44:23;;;;;;;18.02;8.68;;;;;;;19.81;67.83;98755.80;1673056;85;21198;-66
2021/05/18 14:55:06;;;;;;;15.72;7.65;;;;;;;19.72;67.70;98759.80;1672921;85;21123;-64
2021/05/18 14:57:30;;;;;;;14.83;7.33;;;;;;;19.69;68.43;98757.63;1672516;85;21247;-65
2021/05/18 14:59:58;;;;;;;14.85;7.80;;;;;;;19.64;67.90;98753.52;1672590;85;21075;-64
2021/05/18 15:02:26;;;;;;;16.48;8.50;;;;;;;19.58;68.46;98750.54;1672172;85;21351;-68
2021/05/18 15:04:53;;;;;;;19.52;10.03;;;;;;;19.49;68.56;98763.37;1671129;85;21079;-69
2021/05/18 15:07:21;;;;;;;21.20;11.08;;;;;;;19.42;69.04;98758.17;1672544;84;21155;-63
2021/05/18 15:09:51;;;;;;;17.77;8.70;;;;;;;19.33;68.92;98757.99;1672575;85;21815;-65
2021/05/18 15:12:20;;;;;;;20.10;6.87;;;;;;;19.31;69.28;98758.84;1672723;85;21178;-65
2021/05/18 15:14:51;;;;;;;17.87;6.90;;;;;;;19.31;69.23;98753.86;1672675;85;21267;-68
2021/05/18 15:17:19;;;;;;;13.03;6.08;;;;;;;19.29;69.41;98752.77;1672745;85;21190;-65
2021/05/18 15:19:51;;;;;;;12.80;6.50;;;;;;;19.25;68.56;98755.86;1672659;85;21181;-67
2021/05/18 15:22:17;;;;;;;18.40;8.30;;;;;;;19.20;68.29;98760.64;1672824;85;21664;-66
2021/05/18 15:24:45;;;;;;;13.85;7.70;;;;;;;19.18;68.27;98763.72;1655291;85;21075;-63
2021/05/18 15:27:12;;;;;;;14.83;6.78;;;;;;;19.17;67.58;98765.40;1672665;85;21371;-63
2021/05/18 15:29:40;;;;;;;12.37;6.05;;;;;;;19.10;67.87;98771.86;1672825;85;21071;-65
2021/05/18 15:32:08;;;;;;;11.08;4.85;;;;;;;19.05;67.71;98766.36;1672776;85;21087;-62
2021/05/18 15:34:35;;;;;;;10.25;4.87;;;;;;;18.99;67.56;98759.47;1672845;85;21235;-64
2021/05/18 15:37:04;;;;;;;12.13;5.00;;;;;;;18.93;67.41;98758.42;1673035;85;21075;-64
2021/05/18 15:39:32;;;;;;;12.10;6.00;;;;;;;18.88;67.75;98759.30;1673009;85;21050;-64
2021/05/18 15:41:59;;;;;;;10.10;5.55;;;;;;;18.87;67.71;98748.50;1672858;85;21825;-65
2021/05/18 15:44:27;;;;;;;14.10;6.67;;;;;;;18.89;68.12;98749.86;1672771;85;21202;-67
2021/05/18 15:46:55;;;;;;;11.43;5.40;;;;;;;18.92;68.72;98745.67;1672863;85;21314;-66
2021/05/18 15:49:25;;;;;;;15.93;6.10;;;;;;;18.91;69.17;98741.23;1672783;85;21051;-63
2021/05/18 15:51:52;;;;;;;11.83;5.80;;;;;;;18.88;69.73;98737.66;1672903;85;21213;-64
2021/05/18 15:54:20;;;;;;;14.68;6.33;;;;;;;18.84;70.21;98730.45;1672676;85;21317;-62
2021/05/18 15:56:47;;;;;;;15.23;5.80;;;;;;;18.86;70.37;98729.63;1672975;85;21771;-62
2021/05/18 15:59:15;;;;;;;16.75;5.95;;;;;;;18.96;70.31;98722.59;1671906;85;21107;-60
2021/05/18 16:01:43;;;;;;;16.77;5.58;;;;;;;19.11;69.65;98717.42;1671113;85;21318;-65
2021/05/18 16:04:11;;;;;;;11.83;4.67;;;;;;;19.26;69.22;98711.70;1671574;85;21752;-62
2021/05/18 16:06:44;;;;;;;14.78;5.95;;;;;;;19.37;68.11;98707.41;1671955;84;21416;-61
2021/05/18 16:09:11;;;;;;;18.02;6.47;;;;;;;19.43;67.59;98705.66;1672920;85;21051;-64
2021/05/18 16:11:41;;;;;;;14.85;6.22;;;;;;;19.55;66.99;98703.34;1672768;84;21361;-63
2021/05/18 16:14:12;;;;;;;16.67;6.35;;;;;;;19.66;66.50;98706.81;1672704;85;21071;-62
2021/05/18 16:16:39;;;;;;;15.58;6.37;;;;;;;19.71;66.10;98715.08;1672250;85;21936;-63
2021/05/18 16:19:07;;;;;;;16.75;5.80;;;;;;;19.69;65.66;98720.67;1671042;85;21078;-64
2021/05/18 16:21:34;;;;;;;18.12;6.22;;;;;;;19.56;65.43;98726.39;1671433;85;21154;-65
2021/05/18 16:24:04;;;;;;;15.78;5.37;;;;;;;19.41;65.61;98731.52;1671238;85;21060;-76
2021/05/18 16:26:33;;;;;;;15.72;6.28;;;;;;;19.30;66.13;98730.81;1669087;85;21103;-62
2021/05/18 16:29:01;;;;;;;16.20;6.67;;;;;;;19.22;66.61;98716.19;1671536;85;21309;-67
2021/05/18 16:31:29;;;;;;;16.97;6.47;;;;;;;19.15;66.88;98717.11;1671415;85;21099;-62
2021/05/18 16:33:57;;;;;;;19.50;7.22;;;;;;;19.09;67.71;98717.45;1671380;85;21088;-63
2021/05/18 16:36:25;;;;;;;16.02;5.62;;;;;;;19.00;68.11;98714.50;1671498;85;21144;-64